sensor_id;sensor_type;location;lat;lon;timestamp;temperature;humidity
4856;DHT22;2442;48.676;7.986;2023-08-21T00:01:40;21.10;99.90
4856;DHT22;2442;48.676;7.986;2023-08-21T00:04:08;21.10;99.90
4856;DHT22;2442;48.676;7.986;2023-08-21T00:06:35;21.00;99.90
4856;DHT22;2442;48.676;7.986;2023-08-21T00:09:02;20.70;99.90
4856;DHT22;2442;48.676;7.986;2023-08-21T00:11:29;21.10;99.90
4856;DHT22;2442;48.676;7.986;2023-08-21T00:13:56;20.50;99.90
4856;DHT22;2442;48.676;7.986;2023-08-21T00:16:23;21.10;99.90
4856;DHT22;2442;48.676;7.986;2023-08-21T00:18:52;20.70;99.90
4856;DHT22;2442;48.676;7.986;2023-08-21T00:21:20;21.10;99.90
4856;DHT22;2442;48.676;7.986;2023-08-21T00:23:47;21.00;99.90
4856;DHT22;2442;48.676;7.986;2023-08-21T00:26:14;20.50;99.90
4856;DHT22;2442;48.676;7.986;2023-08-21T00:28:41;21.00;99.90
4856;DHT22;2442;48.676;7.986;2023-08-21T00:31:07;20.50;99.90
4856;DHT22;2442;48.676;7.986;2023-08-21T00:33:34;20.60;99.90
4856;DHT22;2442;48.676;7.986;2023-08-21T00:36:02;20.50;99.90
4856;DHT22;2442;48.676;7.986;2023-08-21T00:38:31;20.70;99.90
4856;DHT22;2442;48.676;7.986;2023-08-21T00:40:58;20.60;99.90
4856;DHT22;2442;48.676;7.986;2023-08-21T00:43:25;20.40;99.90
4856;DHT22;2442;48.676;7.986;2023-08-21T00:45:52;20.50;99.90
4856;DHT22;2442;48.676;7.986;2023-08-21T00:48:18;20.60;99.90
4856;DHT22;2442;48.676;7.986;2023-08-21T00:50:46;20.30;99.90
4856;DHT22;2442;48.676;7.986;2023-08-21T00:53:13;20.40;99.90
4856;DHT22;2442;48.676;7.986;2023-08-21T00:55:41;20.40;99.90
4856;DHT22;2442;48.676;7.986;2023-08-21T00:58:09;20.50;99.90
4856;DHT22;2442;48.676;7.986;2023-08-21T01:00:36;20.40;99.90
4856;DHT22;2442;48.676;7.986;2023-08-21T01:03:03;20.30;99.90
4856;DHT22;2442;48.676;7.986;2023-08-21T01:05:30;20.30;99.90
4856;DHT22;2442;48.676;7.986;2023-08-21T01:07:59;20.30;99.90
4856;DHT22;2442;48.676;7.986;2023-08-21T01:10:32;20.40;99.90
4856;DHT22;2442;48.676;7.986;2023-08-21T01:13:06;20.50;99.90
4856;DHT22;2442;48.676;7.986;2023-08-21T01:15:38;20.40;99.90
4856;DHT22;2442;48.676;7.986;2023-08-21T01:18:05;20.50;99.90
4856;DHT22;2442;48.676;7.986;2023-08-21T01:20:34;20.50;99.90
4856;DHT22;2442;48.676;7.986;2023-08-21T01:23:03;20.50;99.90
4856;DHT22;2442;48.676;7.986;2023-08-21T01:25:32;20.40;99.90
4856;DHT22;2442;48.676;7.986;2023-08-21T01:27:59;20.50;99.90
4856;DHT22;2442;48.676;7.986;2023-08-21T01:30:26;20.60;99.90
4856;DHT22;2442;48.676;7.986;2023-08-21T01:32:56;20.60;99.90
4856;DHT22;2442;48.676;7.986;2023-08-21T01:35:26;20.50;99.90
4856;DHT22;2442;48.676;7.986;2023-08-21T01:37:54;20.50;99.90
4856;DHT22;2442;48.676;7.986;2023-08-21T01:40:21;20.40;99.90
4856;DHT22;2442;48.676;7.986;2023-08-21T01:42:49;20.30;99.90
4856;DHT22;2442;48.676;7.986;2023-08-21T01:45:16;20.30;99.90
4856;DHT22;2442;48.676;7.986;2023-08-21T01:47:43;20.40;99.90
4856;DHT22;2442;48.676;7.986;2023-08-21T01:50:10;20.50;99.90
4856;DHT22;2442;48.676;7.986;2023-08-21T01:52:37;20.50;99.90
4856;DHT22;2442;48.676;7.986;2023-08-21T01:55:04;20.50;99.90
4856;DHT22;2442;48.676;7.986;2023-08-21T01:57:33;20.40;99.90
4856;DHT22;2442;48.676;7.986;2023-08-21T02:00:01;20.30;99.90
4856;DHT22;2442;48.676;7.986;2023-08-21T02:02:29;20.20;99.90
4856;DHT22;2442;48.676;7.986;2023-08-21T02:04:56;20.10;99.90
4856;DHT22;2442;48.676;7.986;2023-08-21T02:07:23;20.10;99.90
4856;DHT22;2442;48.676;7.986;2023-08-21T02:09:50;20.10;99.90
4856;DHT22;2442;48.676;7.986;2023-08-21T02:12:17;20.20;99.90
4856;DHT22;2442;48.676;7.986;2023-08-21T02:14:44;20.20;99.90
4856;DHT22;2442;48.676;7.986;2023-08-21T02:17:12;20.30;99.90
4856;DHT22;2442;48.676;7.986;2023-08-21T02:19:39;20.30;99.90
4856;DHT22;2442;48.676;7.986;2023-08-21T02:22:06;20.20;99.90
4856;DHT22;2442;48.676;7.986;2023-08-21T02:24:33;20.10;99.90
4856;DHT22;2442;48.676;7.986;2023-08-21T02:27:01;20.00;99.90
4856;DHT22;2442;48.676;7.986;2023-08-21T02:29:28;20.00;99.90
4856;DHT22;2442;48.676;7.986;2023-08-21T02:31:55;20.00;99.90
4856;DHT22;2442;48.676;7.986;2023-08-21T02:34:25;20.10;99.90
4856;DHT22;2442;48.676;7.986;2023-08-21T02:37:14;20.00;99.90
4856;DHT22;2442;48.676;7.986;2023-08-21T02:39:45;20.00;99.90
4856;DHT22;2442;48.676;7.986;2023-08-21T02:42:16;19.90;99.90
4856;DHT22;2442;48.676;7.986;2023-08-21T02:44:48;19.90;99.90
4856;DHT22;2442;48.676;7.986;2023-08-21T02:47:15;19.90;99.90
4856;DHT22;2442;48.676;7.986;2023-08-21T02:49:43;20.00;99.90
4856;DHT22;2442;48.676;7.986;2023-08-21T02:52:10;20.00;99.90
4856;DHT22;2442;48.676;7.986;2023-08-21T02:54:36;20.10;99.90
4856;DHT22;2442;48.676;7.986;2023-08-21T02:57:03;19.90;99.90
4856;DHT22;2442;48.676;7.986;2023-08-21T02:59:30;19.90;99.90
4856;DHT22;2442;48.676;7.986;2023-08-21T03:01:57;19.70;99.90
4856;DHT22;2442;48.676;7.986;2023-08-21T03:04:24;19.70;99.90
4856;DHT22;2442;48.676;7.986;2023-08-21T03:06:52;19.80;99.90
4856;DHT22;2442;48.676;7.986;2023-08-21T03:09:19;19.80;99.90
4856;DHT22;2442;48.676;7.986;2023-08-21T03:11:46;19.80;99.90
4856;DHT22;2442;48.676;7.986;2023-08-21T03:14:13;19.90;99.90
4856;DHT22;2442;48.676;7.986;2023-08-21T03:16:40;20.00;99.90
4856;DHT22;2442;48.676;7.986;2023-08-21T03:19:07;20.00;99.90
4856;DHT22;2442;48.676;7.986;2023-08-21T03:21:33;20.00;99.90
4856;DHT22;2442;48.676;7.986;2023-08-21T03:24:02;20.10;99.90
4856;DHT22;2442;48.676;7.986;2023-08-21T03:26:32;20.00;99.90
4856;DHT22;2442;48.676;7.986;2023-08-21T03:28:59;20.00;99.90
4856;DHT22;2442;48.676;7.986;2023-08-21T03:31:26;20.00;99.90
4856;DHT22;2442;48.676;7.986;2023-08-21T03:33:53;20.00;99.90
4856;DHT22;2442;48.676;7.986;2023-08-21T03:36:20;19.90;99.90
4856;DHT22;2442;48.676;7.986;2023-08-21T03:38:48;19.90;99.90
4856;DHT22;2442;48.676;7.986;2023-08-21T03:41:17;19.80;99.90
4856;DHT22;2442;48.676;7.986;2023-08-21T03:43:43;19.70;99.90
4856;DHT22;2442;48.676;7.986;2023-08-21T03:46:10;19.60;99.90
4856;DHT22;2442;48.676;7.986;2023-08-21T03:48:37;19.50;99.90
4856;DHT22;2442;48.676;7.986;2023-08-21T03:51:04;19.50;99.90
4856;DHT22;2442;48.676;7.986;2023-08-21T03:53:31;19.60;99.90
4856;DHT22;2442;48.676;7.986;2023-08-21T03:55:57;19.70;99.90
4856;DHT22;2442;48.676;7.986;2023-08-21T03:58:26;19.60;99.90
4856;DHT22;2442;48.676;7.986;2023-08-21T04:00:53;19.50;99.90
4856;DHT22;2442;48.676;7.986;2023-08-21T04:03:19;19.50;99.90
4856;DHT22;2442;48.676;7.986;2023-08-21T04:05:46;19.40;99.90
4856;DHT22;2442;48.676;7.986;2023-08-21T04:08:14;19.50;99.90
4856;DHT22;2442;48.676;7.986;2023-08-21T04:10:40;19.40;99.90
4856;DHT22;2442;48.676;7.986;2023-08-21T04:13:07;19.50;99.90
4856;DHT22;2442;48.676;7.986;2023-08-21T04:15:35;19.60;99.90
4856;DHT22;2442;48.676;7.986;2023-08-21T04:18:03;19.70;99.90
4856;DHT22;2442;48.676;7.986;2023-08-21T04:20:30;19.60;99.90
4856;DHT22;2442;48.676;7.986;2023-08-21T04:22:57;19.60;99.90
4856;DHT22;2442;48.676;7.986;2023-08-21T04:25:24;19.60;99.90
4856;DHT22;2442;48.676;7.986;2023-08-21T04:27:51;19.60;99.90
4856;DHT22;2442;48.676;7.986;2023-08-21T04:30:17;19.60;99.90
4856;DHT22;2442;48.676;7.986;2023-08-21T04:32:46;19.50;99.90
4856;DHT22;2442;48.676;7.986;2023-08-21T04:35:13;19.40;99.90
4856;DHT22;2442;48.676;7.986;2023-08-21T04:37:43;19.40;99.90
4856;DHT22;2442;48.676;7.986;2023-08-21T04:40:12;19.40;99.90
4856;DHT22;2442;48.676;7.986;2023-08-21T04:42:39;19.50;99.90
4856;DHT22;2442;48.676;7.986;2023-08-21T04:45:07;19.40;99.90
4856;DHT22;2442;48.676;7.986;2023-08-21T04:47:34;19.40;99.90
4856;DHT22;2442;48.676;7.986;2023-08-21T04:50:03;19.40;99.90
4856;DHT22;2442;48.676;7.986;2023-08-21T04:52:30;19.30;99.90
4856;DHT22;2442;48.676;7.986;2023-08-21T04:54:57;19.30;99.90
4856;DHT22;2442;48.676;7.986;2023-08-21T04:57:24;19.40;99.90
4856;DHT22;2442;48.676;7.986;2023-08-21T04:59:50;19.50;99.90
4856;DHT22;2442;48.676;7.986;2023-08-21T05:02:17;19.40;99.90
4856;DHT22;2442;48.676;7.986;2023-08-21T05:04:44;19.30;99.90
4856;DHT22;2442;48.676;7.986;2023-08-21T05:07:12;19.30;99.90
4856;DHT22;2442;48.676;7.986;2023-08-21T05:09:39;19.30;99.90
4856;DHT22;2442;48.676;7.986;2023-08-21T05:12:07;19.30;99.90
4856;DHT22;2442;48.676;7.986;2023-08-21T05:14:34;19.30;99.90
4856;DHT22;2442;48.676;7.986;2023-08-21T05:17:01;19.40;99.90
4856;DHT22;2442;48.676;7.986;2023-08-21T05:19:27;19.50;99.90
4856;DHT22;2442;48.676;7.986;2023-08-21T05:21:54;19.50;99.90
4856;DHT22;2442;48.676;7.986;2023-08-21T05:24:22;19.50;99.90
4856;DHT22;2442;48.676;7.986;2023-08-21T05:26:49;19.70;99.90
4856;DHT22;2442;48.676;7.986;2023-08-21T05:29:16;19.70;99.90
4856;DHT22;2442;48.676;7.986;2023-08-21T05:31:43;19.90;99.90
4856;DHT22;2442;48.676;7.986;2023-08-21T05:34:10;20.00;99.90
4856;DHT22;2442;48.676;7.986;2023-08-21T05:36:37;20.00;99.90
4856;DHT22;2442;48.676;7.986;2023-08-21T05:39:04;20.00;99.90
4856;DHT22;2442;48.676;7.986;2023-08-21T05:41:33;20.10;99.90
4856;DHT22;2442;48.676;7.986;2023-08-21T05:44:00;20.10;99.90
4856;DHT22;2442;48.676;7.986;2023-08-21T05:46:26;20.20;99.90
4856;DHT22;2442;48.676;7.986;2023-08-21T05:48:53;20.30;99.90
4856;DHT22;2442;48.676;7.986;2023-08-21T05:51:20;20.40;99.90
4856;DHT22;2442;48.676;7.986;2023-08-21T05:53:47;20.40;99.90
4856;DHT22;2442;48.676;7.986;2023-08-21T05:56:14;20.50;99.90
4856;DHT22;2442;48.676;7.986;2023-08-21T05:58:42;20.60;99.90
4856;DHT22;2442;48.676;7.986;2023-08-21T06:01:09;20.70;99.90
4856;DHT22;2442;48.676;7.986;2023-08-21T06:03:35;20.70;99.90
4856;DHT22;2442;48.676;7.986;2023-08-21T06:06:02;20.80;99.90
4856;DHT22;2442;48.676;7.986;2023-08-21T06:08:29;20.90;99.90
4856;DHT22;2442;48.676;7.986;2023-08-21T06:10:56;21.00;99.90
4856;DHT22;2442;48.676;7.986;2023-08-21T06:13:23;21.10;99.90
4856;DHT22;2442;48.676;7.986;2023-08-21T06:15:51;21.10;99.90
4856;DHT22;2442;48.676;7.986;2023-08-21T06:18:18;21.30;99.90
4856;DHT22;2442;48.676;7.986;2023-08-21T06:20:45;21.30;99.90
4856;DHT22;2442;48.676;7.986;2023-08-21T06:23:11;21.40;99.90
4856;DHT22;2442;48.676;7.986;2023-08-21T06:25:38;21.60;99.90
4856;DHT22;2442;48.676;7.986;2023-08-21T06:28:05;21.70;99.90
4856;DHT22;2442;48.676;7.986;2023-08-21T06:30:32;21.80;99.90
4856;DHT22;2442;48.676;7.986;2023-08-21T06:33:01;21.90;99.90
4856;DHT22;2442;48.676;7.986;2023-08-21T06:35:28;22.10;99.90
4856;DHT22;2442;48.676;7.986;2023-08-21T06:37:55;22.20;99.90
4856;DHT22;2442;48.676;7.986;2023-08-21T06:40:22;22.40;99.90
4856;DHT22;2442;48.676;7.986;2023-08-21T06:42:48;22.50;99.90
4856;DHT22;2442;48.676;7.986;2023-08-21T06:45:16;22.70;99.90
4856;DHT22;2442;48.676;7.986;2023-08-21T06:47:43;22.90;99.90
4856;DHT22;2442;48.676;7.986;2023-08-21T06:50:11;23.10;99.90
4856;DHT22;2442;48.676;7.986;2023-08-21T06:52:38;23.20;99.90
4856;DHT22;2442;48.676;7.986;2023-08-21T06:55:06;23.30;99.90
4856;DHT22;2442;48.676;7.986;2023-08-21T06:57:33;23.30;99.90
4856;DHT22;2442;48.676;7.986;2023-08-21T07:00:00;23.40;99.90
4856;DHT22;2442;48.676;7.986;2023-08-21T07:02:28;23.60;99.90
4856;DHT22;2442;48.676;7.986;2023-08-21T07:04:55;23.70;99.90
4856;DHT22;2442;48.676;7.986;2023-08-21T07:07:23;23.90;99.90
4856;DHT22;2442;48.676;7.986;2023-08-21T07:09:50;23.90;99.90
4856;DHT22;2442;48.676;7.986;2023-08-21T07:12:17;24.00;99.90
4856;DHT22;2442;48.676;7.986;2023-08-21T07:14:44;24.10;99.90
4856;DHT22;2442;48.676;7.986;2023-08-21T07:17:11;24.00;99.90
4856;DHT22;2442;48.676;7.986;2023-08-21T07:19:38;24.20;99.90
4856;DHT22;2442;48.676;7.986;2023-08-21T07:22:04;24.20;99.90
4856;DHT22;2442;48.676;7.986;2023-08-21T07:24:33;24.40;99.90
4856;DHT22;2442;48.676;7.986;2023-08-21T07:26:59;24.50;99.90
4856;DHT22;2442;48.676;7.986;2023-08-21T07:29:26;24.60;99.90
4856;DHT22;2442;48.676;7.986;2023-08-21T07:31:53;24.70;99.90
4856;DHT22;2442;48.676;7.986;2023-08-21T07:34:20;25.00;99.90
4856;DHT22;2442;48.676;7.986;2023-08-21T07:36:47;25.20;99.90
4856;DHT22;2442;48.676;7.986;2023-08-21T07:39:14;25.40;99.90
4856;DHT22;2442;48.676;7.986;2023-08-21T07:41:42;25.60;99.90
4856;DHT22;2442;48.676;7.986;2023-08-21T07:44:09;25.90;99.90
4856;DHT22;2442;48.676;7.986;2023-08-21T07:46:35;26.10;99.90
4856;DHT22;2442;48.676;7.986;2023-08-21T07:49:02;26.40;99.90
4856;DHT22;2442;48.676;7.986;2023-08-21T07:51:29;26.30;99.90
4856;DHT22;2442;48.676;7.986;2023-08-21T07:53:56;26.30;99.90
4856;DHT22;2442;48.676;7.986;2023-08-21T07:56:23;26.20;99.90
4856;DHT22;2442;48.676;7.986;2023-08-21T07:58:51;25.80;99.90
4856;DHT22;2442;48.676;7.986;2023-08-21T08:01:18;26.10;99.90
4856;DHT22;2442;48.676;7.986;2023-08-21T08:03:46;26.10;99.90
4856;DHT22;2442;48.676;7.986;2023-08-21T08:06:14;26.00;99.90
4856;DHT22;2442;48.676;7.986;2023-08-21T08:08:41;26.10;99.90
4856;DHT22;2442;48.676;7.986;2023-08-21T08:11:08;26.20;99.90
4856;DHT22;2442;48.676;7.986;2023-08-21T08:13:35;26.30;99.90
4856;DHT22;2442;48.676;7.986;2023-08-21T08:16:03;26.40;99.90
4856;DHT22;2442;48.676;7.986;2023-08-21T08:18:31;26.80;99.90
4856;DHT22;2442;48.676;7.986;2023-08-21T08:20:59;26.80;99.90
4856;DHT22;2442;48.676;7.986;2023-08-21T08:23:26;26.60;99.90
4856;DHT22;2442;48.676;7.986;2023-08-21T08:25:52;26.90;99.90
4856;DHT22;2442;48.676;7.986;2023-08-21T08:28:19;27.10;99.90
4856;DHT22;2442;48.676;7.986;2023-08-21T08:30:46;26.80;99.90
4856;DHT22;2442;48.676;7.986;2023-08-21T08:33:14;26.70;99.90
4856;DHT22;2442;48.676;7.986;2023-08-21T08:35:41;26.70;99.90
4856;DHT22;2442;48.676;7.986;2023-08-21T08:38:08;26.50;99.90
4856;DHT22;2442;48.676;7.986;2023-08-21T08:40:37;26.80;99.90
4856;DHT22;2442;48.676;7.986;2023-08-21T08:43:09;26.90;99.90
4856;DHT22;2442;48.676;7.986;2023-08-21T08:45:37;26.90;99.90
4856;DHT22;2442;48.676;7.986;2023-08-21T08:48:04;27.10;99.90
4856;DHT22;2442;48.676;7.986;2023-08-21T08:50:33;27.20;99.90
4856;DHT22;2442;48.676;7.986;2023-08-21T08:53:00;27.30;99.90
4856;DHT22;2442;48.676;7.986;2023-08-21T08:55:27;27.50;99.90
4856;DHT22;2442;48.676;7.986;2023-08-21T08:57:54;27.40;99.90
4856;DHT22;2442;48.676;7.986;2023-08-21T09:00:21;27.40;99.90
4856;DHT22;2442;48.676;7.986;2023-08-21T09:02:48;27.60;99.90
4856;DHT22;2442;48.676;7.986;2023-08-21T09:05:15;27.50;99.90
4856;DHT22;2442;48.676;7.986;2023-08-21T09:07:43;27.50;99.90
4856;DHT22;2442;48.676;7.986;2023-08-21T09:10:12;27.50;99.90
4856;DHT22;2442;48.676;7.986;2023-08-21T09:12:39;27.50;99.90
4856;DHT22;2442;48.676;7.986;2023-08-21T09:15:07;27.60;99.90
4856;DHT22;2442;48.676;7.986;2023-08-21T09:17:34;27.70;99.90
4856;DHT22;2442;48.676;7.986;2023-08-21T09:20:04;28.00;99.90
4856;DHT22;2442;48.676;7.986;2023-08-21T09:22:32;28.20;99.90
4856;DHT22;2442;48.676;7.986;2023-08-21T09:25:01;28.10;99.90
4856;DHT22;2442;48.676;7.986;2023-08-21T09:27:32;28.30;99.90
4856;DHT22;2442;48.676;7.986;2023-08-21T09:29:59;28.50;99.90
4856;DHT22;2442;48.676;7.986;2023-08-21T09:32:27;28.20;99.90
4856;DHT22;2442;48.676;7.986;2023-08-21T09:34:54;28.30;99.90
4856;DHT22;2442;48.676;7.986;2023-08-21T09:37:23;28.60;99.90
4856;DHT22;2442;48.676;7.986;2023-08-21T09:39:58;28.80;99.90
4856;DHT22;2442;48.676;7.986;2023-08-21T09:42:32;28.90;99.90
4856;DHT22;2442;48.676;7.986;2023-08-21T09:44:59;28.70;99.90
4856;DHT22;2442;48.676;7.986;2023-08-21T09:47:27;28.80;99.90
4856;DHT22;2442;48.676;7.986;2023-08-21T09:49:54;29.00;99.90
4856;DHT22;2442;48.676;7.986;2023-08-21T09:52:21;28.90;99.90
4856;DHT22;2442;48.676;7.986;2023-08-21T09:54:48;29.00;99.90
4856;DHT22;2442;48.676;7.986;2023-08-21T09:57:17;29.30;99.90
4856;DHT22;2442;48.676;7.986;2023-08-21T09:59:44;29.40;99.90
4856;DHT22;2442;48.676;7.986;2023-08-21T10:02:11;29.40;99.90
4856;DHT22;2442;48.676;7.986;2023-08-21T10:04:38;29.70;99.90
4856;DHT22;2442;48.676;7.986;2023-08-21T10:07:07;29.80;99.90
4856;DHT22;2442;48.676;7.986;2023-08-21T10:09:36;29.90;99.90
4856;DHT22;2442;48.676;7.986;2023-08-21T10:12:04;29.40;99.90
4856;DHT22;2442;48.676;7.986;2023-08-21T10:14:33;29.40;99.90
4856;DHT22;2442;48.676;7.986;2023-08-21T10:17:00;29.50;99.90
4856;DHT22;2442;48.676;7.986;2023-08-21T10:19:30;29.60;99.90
4856;DHT22;2442;48.676;7.986;2023-08-21T10:21:57;29.80;99.90
4856;DHT22;2442;48.676;7.986;2023-08-21T10:24:27;29.90;99.90
4856;DHT22;2442;48.676;7.986;2023-08-21T10:26:57;29.70;99.90
4856;DHT22;2442;48.676;7.986;2023-08-21T10:29:25;29.50;99.90
4856;DHT22;2442;48.676;7.986;2023-08-21T10:31:59;29.40;99.90
4856;DHT22;2442;48.676;7.986;2023-08-21T10:34:30;29.80;99.90
4856;DHT22;2442;48.676;7.986;2023-08-21T10:37:08;30.10;99.90
4856;DHT22;2442;48.676;7.986;2023-08-21T10:39:38;30.00;99.90
4856;DHT22;2442;48.676;7.986;2023-08-21T10:42:06;30.10;99.90
4856;DHT22;2442;48.676;7.986;2023-08-21T10:44:48;30.10;99.90
4856;DHT22;2442;48.676;7.986;2023-08-21T10:47:19;30.20;99.90
4856;DHT22;2442;48.676;7.986;2023-08-21T10:49:46;30.20;99.90
4856;DHT22;2442;48.676;7.986;2023-08-21T10:52:14;30.20;99.90
4856;DHT22;2442;48.676;7.986;2023-08-21T10:54:45;30.40;99.90
4856;DHT22;2442;48.676;7.986;2023-08-21T10:57:12;30.60;99.90
4856;DHT22;2442;48.676;7.986;2023-08-21T10:59:48;30.60;99.90
4856;DHT22;2442;48.676;7.986;2023-08-21T11:02:16;30.40;99.90
4856;DHT22;2442;48.676;7.986;2023-08-21T11:04:44;30.30;99.90
4856;DHT22;2442;48.676;7.986;2023-08-21T11:07:11;30.20;99.90
4856;DHT22;2442;48.676;7.986;2023-08-21T11:09:38;30.20;99.90
4856;DHT22;2442;48.676;7.986;2023-08-21T11:12:06;30.50;99.90
4856;DHT22;2442;48.676;7.986;2023-08-21T11:14:34;30.80;99.90
4856;DHT22;2442;48.676;7.986;2023-08-21T11:17:01;30.60;99.90
4856;DHT22;2442;48.676;7.986;2023-08-21T11:19:29;30.60;99.90
4856;DHT22;2442;48.676;7.986;2023-08-21T11:21:58;30.70;99.90
4856;DHT22;2442;48.676;7.986;2023-08-21T11:24:29;30.70;99.90
4856;DHT22;2442;48.676;7.986;2023-08-21T11:26:57;30.80;99.90
4856;DHT22;2442;48.676;7.986;2023-08-21T11:29:24;30.90;99.90
4856;DHT22;2442;48.676;7.986;2023-08-21T11:31:51;30.90;99.90
4856;DHT22;2442;48.676;7.986;2023-08-21T11:34:18;31.10;99.90
4856;DHT22;2442;48.676;7.986;2023-08-21T11:36:45;31.10;99.90
4856;DHT22;2442;48.676;7.986;2023-08-21T11:39:13;31.40;99.90
4856;DHT22;2442;48.676;7.986;2023-08-21T11:41:53;31.30;99.90
4856;DHT22;2442;48.676;7.986;2023-08-21T11:44:20;31.40;99.90
4856;DHT22;2442;48.676;7.986;2023-08-21T11:46:46;31.30;99.90
4856;DHT22;2442;48.676;7.986;2023-08-21T11:49:13;31.30;99.90
4856;DHT22;2442;48.676;7.986;2023-08-21T11:51:41;31.60;99.90
4856;DHT22;2442;48.676;7.986;2023-08-21T11:54:08;31.70;99.90
4856;DHT22;2442;48.676;7.986;2023-08-21T11:56:36;31.60;99.90
4856;DHT22;2442;48.676;7.986;2023-08-21T11:59:06;31.70;99.90
4856;DHT22;2442;48.676;7.986;2023-08-21T12:01:33;31.70;99.90
4856;DHT22;2442;48.676;7.986;2023-08-21T12:04:00;31.90;99.90
4856;DHT22;2442;48.676;7.986;2023-08-21T12:06:27;31.80;99.90
4856;DHT22;2442;48.676;7.986;2023-08-21T12:08:57;31.80;99.90
4856;DHT22;2442;48.676;7.986;2023-08-21T12:11:25;31.80;99.90
4856;DHT22;2442;48.676;7.986;2023-08-21T12:13:54;32.00;99.90
4856;DHT22;2442;48.676;7.986;2023-08-21T12:16:22;32.00;99.90
4856;DHT22;2442;48.676;7.986;2023-08-21T12:18:51;32.10;99.90
4856;DHT22;2442;48.676;7.986;2023-08-21T12:21:20;32.30;99.90
4856;DHT22;2442;48.676;7.986;2023-08-21T12:23:47;32.30;99.90
4856;DHT22;2442;48.676;7.986;2023-08-21T12:26:13;32.10;99.90
4856;DHT22;2442;48.676;7.986;2023-08-21T12:28:45;32.10;99.90
4856;DHT22;2442;48.676;7.986;2023-08-21T12:31:14;32.00;99.90
4856;DHT22;2442;48.676;7.986;2023-08-21T12:33:41;32.00;99.90
4856;DHT22;2442;48.676;7.986;2023-08-21T12:36:07;32.20;99.90
4856;DHT22;2442;48.676;7.986;2023-08-21T12:38:35;32.40;99.90
4856;DHT22;2442;48.676;7.986;2023-08-21T12:41:02;32.40;99.90
4856;DHT22;2442;48.676;7.986;2023-08-21T12:43:29;32.40;99.90
4856;DHT22;2442;48.676;7.986;2023-08-21T12:45:56;32.60;99.90
4856;DHT22;2442;48.676;7.986;2023-08-21T12:48:24;32.40;99.90
4856;DHT22;2442;48.676;7.986;2023-08-21T12:50:51;32.40;99.90
4856;DHT22;2442;48.676;7.986;2023-08-21T12:53:18;32.40;99.90
4856;DHT22;2442;48.676;7.986;2023-08-21T12:55:45;32.50;99.90
4856;DHT22;2442;48.676;7.986;2023-08-21T12:58:12;32.60;99.90
4856;DHT22;2442;48.676;7.986;2023-08-21T13:00:39;32.50;99.90
4856;DHT22;2442;48.676;7.986;2023-08-21T13:03:06;32.50;99.90
4856;DHT22;2442;48.676;7.986;2023-08-21T13:05:35;32.40;99.90
4856;DHT22;2442;48.676;7.986;2023-08-21T13:08:02;32.40;99.90
4856;DHT22;2442;48.676;7.986;2023-08-21T13:10:29;32.40;99.90
4856;DHT22;2442;48.676;7.986;2023-08-21T13:12:56;32.70;99.90
4856;DHT22;2442;48.676;7.986;2023-08-21T13:15:22;32.50;99.90
4856;DHT22;2442;48.676;7.986;2023-08-21T13:17:49;32.70;99.90
4856;DHT22;2442;48.676;7.986;2023-08-21T13:20:16;32.70;99.90
4856;DHT22;2442;48.676;7.986;2023-08-21T13:22:46;32.80;99.90
4856;DHT22;2442;48.676;7.986;2023-08-21T13:25:14;32.80;99.90
4856;DHT22;2442;48.676;7.986;2023-08-21T13:27:41;32.90;99.90
4856;DHT22;2442;48.676;7.986;2023-08-21T13:30:09;33.00;99.90
4856;DHT22;2442;48.676;7.986;2023-08-21T13:32:36;33.00;99.90
4856;DHT22;2442;48.676;7.986;2023-08-21T13:35:03;32.70;99.90
4856;DHT22;2442;48.676;7.986;2023-08-21T13:37:32;32.60;99.90
4856;DHT22;2442;48.676;7.986;2023-08-21T13:40:00;32.70;99.90
4856;DHT22;2442;48.676;7.986;2023-08-21T13:42:35;32.60;99.90
4856;DHT22;2442;48.676;7.986;2023-08-21T13:45:07;32.60;99.90
4856;DHT22;2442;48.676;7.986;2023-08-21T13:47:35;32.80;99.90
4856;DHT22;2442;48.676;7.986;2023-08-21T13:50:02;32.60;99.90
4856;DHT22;2442;48.676;7.986;2023-08-21T13:52:30;32.70;99.90
4856;DHT22;2442;48.676;7.986;2023-08-21T13:54:58;32.80;99.90
4856;DHT22;2442;48.676;7.986;2023-08-21T13:57:26;32.90;99.90
4856;DHT22;2442;48.676;7.986;2023-08-21T13:59:53;32.60;99.90
4856;DHT22;2442;48.676;7.986;2023-08-21T14:02:20;32.60;99.90
4856;DHT22;2442;48.676;7.986;2023-08-21T14:04:48;32.60;99.90
4856;DHT22;2442;48.676;7.986;2023-08-21T14:07:15;32.70;99.90
4856;DHT22;2442;48.676;7.986;2023-08-21T14:09:42;32.80;99.90
4856;DHT22;2442;48.676;7.986;2023-08-21T14:12:09;32.80;99.90
4856;DHT22;2442;48.676;7.986;2023-08-21T14:14:37;32.60;99.90
4856;DHT22;2442;48.676;7.986;2023-08-21T14:17:04;32.90;99.90
4856;DHT22;2442;48.676;7.986;2023-08-21T14:19:31;32.90;99.90
4856;DHT22;2442;48.676;7.986;2023-08-21T14:21:58;32.80;99.90
4856;DHT22;2442;48.676;7.986;2023-08-21T14:24:25;32.80;99.90
4856;DHT22;2442;48.676;7.986;2023-08-21T14:26:52;32.90;99.90
4856;DHT22;2442;48.676;7.986;2023-08-21T14:29:19;33.10;99.90
4856;DHT22;2442;48.676;7.986;2023-08-21T14:31:47;33.20;99.90
4856;DHT22;2442;48.676;7.986;2023-08-21T14:34:14;33.40;99.90
4856;DHT22;2442;48.676;7.986;2023-08-21T14:36:41;33.40;99.90
4856;DHT22;2442;48.676;7.986;2023-08-21T14:39:08;33.20;99.90
4856;DHT22;2442;48.676;7.986;2023-08-21T14:41:36;33.10;99.90
4856;DHT22;2442;48.676;7.986;2023-08-21T14:44:03;32.80;99.90
4856;DHT22;2442;48.676;7.986;2023-08-21T14:46:31;33.00;99.90
4856;DHT22;2442;48.676;7.986;2023-08-21T14:48:59;33.00;99.90
4856;DHT22;2442;48.676;7.986;2023-08-21T14:51:27;33.00;99.90
4856;DHT22;2442;48.676;7.986;2023-08-21T14:53:54;33.00;99.90
4856;DHT22;2442;48.676;7.986;2023-08-21T14:56:21;33.20;99.90
4856;DHT22;2442;48.676;7.986;2023-08-21T14:58:48;33.20;99.90
4856;DHT22;2442;48.676;7.986;2023-08-21T15:01:15;33.20;99.90
4856;DHT22;2442;48.676;7.986;2023-08-21T15:03:42;33.20;99.90
4856;DHT22;2442;48.676;7.986;2023-08-21T15:06:11;33.10;99.90
4856;DHT22;2442;48.676;7.986;2023-08-21T15:08:38;33.20;99.90
4856;DHT22;2442;48.676;7.986;2023-08-21T15:11:06;33.00;99.90
4856;DHT22;2442;48.676;7.986;2023-08-21T15:13:34;32.80;99.90
4856;DHT22;2442;48.676;7.986;2023-08-21T15:16:01;32.80;99.90
4856;DHT22;2442;48.676;7.986;2023-08-21T15:18:28;32.70;99.90
4856;DHT22;2442;48.676;7.986;2023-08-21T15:20:54;32.60;99.90
4856;DHT22;2442;48.676;7.986;2023-08-21T15:23:23;32.60;99.90
4856;DHT22;2442;48.676;7.986;2023-08-21T15:25:50;32.80;99.90
4856;DHT22;2442;48.676;7.986;2023-08-21T15:28:17;32.80;99.90
4856;DHT22;2442;48.676;7.986;2023-08-21T15:30:44;32.70;99.90
4856;DHT22;2442;48.676;7.986;2023-08-21T15:33:11;32.80;99.90
4856;DHT22;2442;48.676;7.986;2023-08-21T15:35:37;32.70;99.90
4856;DHT22;2442;48.676;7.986;2023-08-21T15:38:04;32.80;99.90
4856;DHT22;2442;48.676;7.986;2023-08-21T15:40:32;32.90;99.90
4856;DHT22;2442;48.676;7.986;2023-08-21T15:42:59;32.80;99.90
4856;DHT22;2442;48.676;7.986;2023-08-21T15:45:28;32.70;99.90
4856;DHT22;2442;48.676;7.986;2023-08-21T15:47:54;32.70;99.90
4856;DHT22;2442;48.676;7.986;2023-08-21T15:50:21;32.80;99.90
4856;DHT22;2442;48.676;7.986;2023-08-21T15:52:48;32.80;99.90
4856;DHT22;2442;48.676;7.986;2023-08-21T15:55:15;32.90;99.90
4856;DHT22;2442;48.676;7.986;2023-08-21T15:57:44;32.80;99.90
4856;DHT22;2442;48.676;7.986;2023-08-21T16:00:11;33.00;99.90
4856;DHT22;2442;48.676;7.986;2023-08-21T16:02:38;32.90;99.90
4856;DHT22;2442;48.676;7.986;2023-08-21T16:05:06;32.80;99.90